Time;durP1;ratioP1;P1;durP2;ratioP2;P2;SDS_P1;SDS_P2;PMS_P1;PMS_P2;Temp;Humidity;BMP_temperature;BMP_pressure;BME280_temperature;BME280_humidity;BME280_pressure;Samples;Min_cycle;Max_cycle;Signal;HPM_P1;HPM_P2
2022/10/10 00:02:06;;;;;;;4.40;2.38;;;11.70;65.50;;;;;;5011122;28;20380;-67
2022/10/10 00:04:31;;;;;;;3.47;2.33;;;11.70;65.50;;;;;;5009032;28;20022;-67
2022/10/10 00:06:57;;;;;;;3.45;2.05;;;11.70;65.50;;;;;;5013240;28;20060;-68
2022/10/10 00:09:22;;;;;;;4.05;2.45;;;11.70;65.60;;;;;;5010537;28;20026;-67
2022/10/10 00:11:48;;;;;;;3.90;1.92;;;11.70;65.60;;;;;;5010371;28;20033;-69
2022/10/10 00:14:14;;;;;;;3.58;2.50;;;11.60;65.60;;;;;;5012447;28;20025;-69
2022/10/10 00:16:39;;;;;;;3.47;1.98;;;11.60;65.70;;;;;;5013801;28;20029;-67
2022/10/10 00:19:05;;;;;;;2.72;1.98;;;11.60;65.90;;;;;;5014080;28;20084;-68
2022/10/10 00:21:31;;;;;;;4.55;2.35;;;11.50;65.90;;;;;;5013851;28;20624;-68
2022/10/10 00:23:56;;;;;;;3.30;2.45;;;11.50;65.90;;;;;;5012562;28;20430;-67
2022/10/10 00:26:22;;;;;;;3.08;2.20;;;11.50;66.00;;;;;;5013200;28;20056;-68
2022/10/10 00:28:47;;;;;;;2.45;2.03;;;11.50;66.00;;;;;;5013517;28;20045;-67
2022/10/10 00:31:13;;;;;;;4.30;1.98;;;11.50;66.00;;;;;;5014356;28;20046;-67
2022/10/10 00:33:39;;;;;;;3.00;2.10;;;11.50;66.10;;;;;;5012897;28;20133;-67
2022/10/10 00:36:05;;;;;;;3.28;2.10;;;11.50;66.20;;;;;;5013186;28;20045;-67
2022/10/10 00:38:31;;;;;;;3.70;2.58;;;11.40;66.20;;;;;;5014391;28;20014;-68
2022/10/10 00:40:57;;;;;;;2.53;1.98;;;11.40;66.40;;;;;;5013734;28;20037;-68
2022/10/10 00:43:24;;;;;;;4.72;2.35;;;11.40;66.50;;;;;;5013052;28;20072;-69
2022/10/10 00:45:51;;;;;;;4.00;2.50;;;11.40;66.60;;;;;;5011900;28;20038;-68
2022/10/10 00:48:38;;;;;;;3.72;2.30;;;11.40;66.60;;;;;;5010932;28;20079;-68
2022/10/10 00:51:10;;;;;;;3.53;2.20;;;11.40;66.60;;;;;;5011761;28;20033;-68
2022/10/10 00:53:41;;;;;;;3.97;2.28;;;11.40;66.60;;;;;;5012172;28;20357;-68
2022/10/10 00:56:08;;;;;;;4.40;2.67;;;11.40;66.60;;;;;;5011367;28;20025;-68
2022/10/10 00:58:36;;;;;;;3.67;2.30;;;11.40;66.80;;;;;;5012590;28;20030;-69
2022/10/10 01:01:02;;;;;;;3.53;2.30;;;11.40;66.80;;;;;;5013060;28;20023;-68
2022/10/10 01:03:27;;;;;;;3.65;2.50;;;11.40;66.80;;;;;;5012005;28;20022;-69
2022/10/10 01:05:53;;;;;;;5.00;2.50;;;11.40;66.80;;;;;;5011887;28;20041;-68
2022/10/10 01:08:20;;;;;;;3.88;2.40;;;11.40;66.80;;;;;;5012022;28;20389;-68
2022/10/10 01:11:05;;;;;;;4.68;2.80;;;11.40;66.80;;;;;;5025178;28;20037;-69
2022/10/10 01:13:39;;;;;;;3.45;2.47;;;11.40;66.90;;;;;;5010967;28;20061;-70
2022/10/10 01:16:20;;;;;;;3.00;2.00;;;11.40;66.80;;;;;;4975509;28;1049273;-69
2022/10/10 01:19:13;;;;;;;3.65;2.28;;;11.40;67.50;;;;;;5013315;28;20022;-67
2022/10/10 01:22:00;;;;;;;3.03;2.30;;;11.40;66.90;;;;;;5013601;28;20045;-67
2022/10/10 01:24:46;;;;;;;3.75;2.17;;;11.40;66.90;;;;;;5005279;28;20044;-68
2022/10/10 01:27:30;;;;;;;3.38;2.50;;;11.40;67.00;;;;;;5013238;28;20044;-69
2022/10/10 01:30:03;;;;;;;4.20;2.65;;;11.30;67.20;;;;;;5013046;28;20038;-69
2022/10/10 01:32:51;;;;;;;4.40;2.58;;;11.30;67.30;;;;;;5013748;28;20049;-69
2022/10/10 01:35:39;;;;;;;4.32;2.90;;;11.30;67.50;;;;;;5012860;28;20044;-70
2022/10/10 01:38:35;;;;;;;3.72;2.53;;;11.20;67.60;;;;;;5013387;28;20030;-69
2022/10/10 01:41:03;;;;;;;5.38;2.50;;;11.20;67.80;;;;;;5008973;28;20018;-68
2022/10/10 01:43:30;;;;;;;3.50;2.80;;;11.20;68.10;;;;;;5013075;28;20081;-68
2022/10/10 01:45:55;;;;;;;3.45;2.60;;;11.10;68.20;;;;;;5013209;28;20024;-67
2022/10/10 01:48:29;;;;;;;4.85;2.97;;;11.10;68.20;;;;;;5012299;28;20112;-67
2022/10/10 01:51:31;;;;;;;3.92;2.60;;;11.10;68.30;;;;;;5012987;28;20026;-67
2022/10/10 01:54:50;;;;;;;3.15;2.28;;;11.10;68.30;;;;;;5011015;28;20026;-68
2022/10/10 01:57:19;;;;;;;3.85;2.80;;;11.10;68.50;;;;;;5009213;28;20102;-68
2022/10/10 02:00:06;;;;;;;3.50;2.35;;;11.00;68.60;;;;;;5012201;28;20038;-66
2022/10/10 02:02:39;;;;;;;3.50;2.50;;;11.10;68.60;;;;;;5012242;28;20133;-67
2022/10/10 02:05:09;;;;;;;2.92;2.30;;;11.10;68.50;;;;;;5018693;28;20021;-67
2022/10/10 02:07:51;;;;;;;2.97;2.30;;;11.10;68.40;;;;;;5024721;28;20072;-67
2022/10/10 02:10:21;;;;;;;4.43;2.40;;;11.10;68.40;;;;;;5010418;28;20112;-66
2022/10/10 02:12:48;;;;;;;3.15;2.28;;;11.10;68.30;;;;;;5011809;28;20109;-67
2022/10/10 02:15:18;;;;;;;3.17;2.10;;;11.10;68.40;;;;;;5012226;28;20085;-67
2022/10/10 02:17:46;;;;;;;4.10;2.20;;;11.10;68.30;;;;;;5010267;28;20392;-67
2022/10/10 02:20:15;;;;;;;4.38;2.30;;;11.20;68.40;;;;;;5011808;28;20022;-67
2022/10/10 02:22:43;;;;;;;2.13;1.90;;;11.10;68.30;;;;;;5011646;28;20032;-67
2022/10/10 02:25:10;;;;;;;2.40;2.00;;;11.10;68.40;;;;;;5010929;28;20026;-68
2022/10/10 02:27:47;;;;;;;3.05;2.38;;;11.10;68.40;;;;;;5012441;28;20025;-67
2022/10/10 02:30:14;;;;;;;3.67;3.10;;;11.10;68.60;;;;;;5003246;28;20463;-68
2022/10/10 02:32:48;;;;;;;4.47;2.65;;;11.00;68.80;;;;;;5011112;28;20084;-68
2022/10/10 02:35:18;;;;;;;3.08;2.35;;;11.00;68.90;;;;;;5012192;28;20488;-67
2022/10/10 02:37:45;;;;;;;3.85;2.30;;;11.00;69.00;;;;;;5011677;28;20084;-68
2022/10/10 02:40:15;;;;;;;3.72;2.50;;;11.00;69.00;;;;;;5014333;28;20515;-68
2022/10/10 02:42:41;;;;;;;4.00;2.78;;;11.00;69.00;;;;;;5013127;28;20022;-69
2022/10/10 02:45:07;;;;;;;3.78;2.58;;;11.00;69.10;;;;;;5012259;28;20101;-69
2022/10/10 02:47:33;;;;;;;3.35;2.30;;;11.00;69.10;;;;;;5012146;28;20053;-69
2022/10/10 02:49:58;;;;;;;3.22;2.42;;;11.00;69.10;;;;;;5012124;28;20400;-69
2022/10/10 02:52:24;;;;;;;3.22;2.40;;;11.00;69.00;;;;;;5012305;28;20038;-67
2022/10/10 02:54:49;;;;;;;4.80;2.80;;;11.00;69.00;;;;;;5010794;28;20029;-69
2022/10/10 02:57:15;;;;;;;3.58;2.42;;;11.00;69.10;;;;;;5011453;28;20030;-68
2022/10/10 02:59:40;;;;;;;4.78;2.60;;;11.00;69.30;;;;;;5011433;28;20485;-68
2022/10/10 03:02:06;;;;;;;3.80;2.45;;;11.00;69.40;;;;;;5011926;28;20022;-67
2022/10/10 03:04:33;;;;;;;3.08;2.50;;;10.90;70.00;;;;;;5010455;28;20101;-68
2022/10/10 03:06:59;;;;;;;3.30;2.75;;;10.90;69.60;;;;;;5015868;28;20476;-68
2022/10/10 03:09:25;;;;;;;4.13;2.60;;;10.90;69.60;;;;;;5010390;28;20025;-68
2022/10/10 03:11:50;;;;;;;3.22;2.40;;;10.90;69.60;;;;;;5010966;28;20041;-69
2022/10/10 03:14:16;;;;;;;4.43;2.58;;;10.90;69.60;;;;;;5010928;28;20026;-69
2022/10/10 03:16:41;;;;;;;6.15;3.17;;;10.90;69.70;;;;;;5010241;28;20033;-69
2022/10/10 03:19:07;;;;;;;4.13;3.20;;;10.90;69.90;;;;;;5011657;28;20173;-68
2022/10/10 03:21:34;;;;;;;3.65;3.00;;;10.90;70.00;;;;;;5013537;28;20037;-68
2022/10/10 03:24:00;;;;;;;3.67;2.40;;;10.80;69.90;;;;;;5011695;28;20022;-67
2022/10/10 03:26:25;;;;;;;4.20;2.88;;;10.80;69.90;;;;;;5011196;28;20037;-67
2022/10/10 03:28:51;;;;;;;5.70;3.20;;;10.80;70.00;;;;;;5010364;28;20111;-66
2022/10/10 03:31:16;;;;;;;5.63;2.72;;;10.80;70.20;;;;;;5011453;28;20037;-67
2022/10/10 03:33:42;;;;;;;3.55;2.78;;;10.80;70.20;;;;;;5012039;28;20033;-67
2022/10/10 03:36:08;;;;;;;4.25;2.47;;;10.80;70.30;;;;;;5011899;28;20040;-68
2022/10/10 03:38:33;;;;;;;3.83;2.70;;;10.80;70.30;;;;;;5012046;28;20050;-68
2022/10/10 03:40:59;;;;;;;6.15;3.20;;;10.80;70.40;;;;;;5011354;28;20026;-67
2022/10/10 03:43:25;;;;;;;3.53;2.80;;;10.80;70.50;;;;;;5010859;28;20105;-67
2022/10/10 03:45:50;;;;;;;5.38;2.75;;;10.70;70.60;;;;;;5010798;28;20054;-67
2022/10/10 03:48:16;;;;;;;4.53;2.88;;;10.70;70.70;;;;;;5010939;28;20097;-68
2022/10/10 03:50:41;;;;;;;4.32;2.95;;;10.70;70.70;;;;;;5011424;28;20032;-69
2022/10/10 03:53:07;;;;;;;3.78;2.67;;;10.70;70.70;;;;;;5010632;28;20056;-67
2022/10/10 03:55:33;;;;;;;3.97;2.65;;;10.70;70.80;;;;;;5011870;28;20053;-67
2022/10/10 03:57:58;;;;;;;3.30;2.50;;;10.70;70.70;;;;;;5010157;28;20538;-67
2022/10/10 04:00:24;;;;;;;4.85;2.95;;;10.70;70.70;;;;;;5008933;28;20428;-66
2022/10/10 04:02:49;;;;;;;4.65;3.10;;;10.70;70.80;;;;;;5010001;28;20088;-67
2022/10/10 04:05:15;;;;;;;5.88;3.28;;;10.70;70.90;;;;;;5010334;28;20045;-68
2022/10/10 04:07:41;;;;;;;5.00;2.58;;;10.60;71.30;;;;;;5009959;28;20026;-67
2022/10/10 04:10:07;;;;;;;4.57;2.85;;;10.60;71.30;;;;;;5007256;28;20022;-67
2022/10/10 04:12:33;;;;;;;5.68;3.22;;;10.60;71.40;;;;;;5009122;28;20488;-66
2022/10/10 04:14:58;;;;;;;5.93;3.15;;;10.50;71.40;;;;;;5010129;28;20112;-66
2022/10/10 04:17:24;;;;;;;4.35;3.10;;;10.50;71.50;;;;;;5009834;28;20030;-66
2022/10/10 04:19:50;;;;;;;4.70;3.08;;;10.50;71.50;;;;;;5009997;28;20041;-67
2022/10/10 04:22:15;;;;;;;4.68;3.10;;;10.50;71.50;;;;;;4995276;28;20033;-66
2022/10/10 04:24:41;;;;;;;4.07;2.90;;;10.50;71.60;;;;;;5005808;28;20026;-68
2022/10/10 04:27:07;;;;;;;4.18;2.70;;;10.40;71.60;;;;;;5009414;28;20128;-67
2022/10/10 04:29:32;;;;;;;5.00;2.80;;;10.50;71.70;;;;;;5009672;28;20064;-68
2022/10/10 04:31:58;;;;;;;2.95;2.03;;;10.40;71.60;;;;;;5009717;28;20030;-67
2022/10/10 04:34:23;;;;;;;3.78;2.60;;;10.50;71.70;;;;;;5009651;28;20042;-67
2022/10/10 04:36:49;;;;;;;3.15;2.65;;;10.40;71.60;;;;;;5009218;28;20034;-69
2022/10/10 04:39:14;;;;;;;6.78;3.03;;;10.40;71.60;;;;;;5009776;28;20096;-68
2022/10/10 04:41:40;;;;;;;4.63;2.33;;;10.50;71.60;;;;;;5008898;28;20516;-67
2022/10/10 04:44:05;;;;;;;3.40;2.80;;;10.40;71.50;;;;;;5009597;28;20034;-68
2022/10/10 04:46:31;;;;;;;3.20;2.40;;;10.40;71.50;;;;;;5007206;28;20068;-68
2022/10/10 04:48:56;;;;;;;4.28;2.63;;;10.40;71.50;;;;;;4990478;28;20030;-67
2022/10/10 04:51:22;;;;;;;5.65;2.90;;;10.40;71.40;;;;;;4998242;28;20097;-67
2022/10/10 04:53:48;;;;;;;3.95;2.63;;;10.40;71.50;;;;;;5009552;28;20025;-69
2022/10/10 04:56:13;;;;;;;4.78;2.70;;;10.30;71.50;;;;;;5009304;28;20034;-69
2022/10/10 04:58:39;;;;;;;4.55;2.70;;;10.30;71.60;;;;;;5008078;28;20056;-68
2022/10/10 05:01:04;;;;;;;4.38;3.03;;;10.30;71.80;;;;;;5012499;28;20127;-68
2022/10/10 05:03:30;;;;;;;4.78;2.90;;;10.20;71.90;;;;;;5004712;28;20493;-69
2022/10/10 05:05:55;;;;;;;4.78;2.90;;;10.20;72.00;;;;;;5004401;28;20121;-67
2022/10/10 05:08:21;;;;;;;4.28;3.17;;;10.20;71.90;;;;;;5012755;28;20045;-67
2022/10/10 05:10:47;;;;;;;4.55;3.17;;;10.20;72.10;;;;;;5008033;28;20116;-67
2022/10/10 05:13:14;;;;;;;3.13;2.75;;;10.10;72.20;;;;;;5009919;28;20080;-68
2022/10/10 05:15:41;;;;;;;6.13;2.88;;;10.10;72.40;;;;;;5011039;28;20036;-67
2022/10/10 05:18:07;;;;;;;4.65;3.00;;;10.10;72.60;;;;;;5008970;28;20123;-68
2022/10/10 05:20:35;;;;;;;5.10;3.30;;;10.00;72.60;;;;;;5012180;28;20600;-68
2022/10/10 05:23:00;;;;;;;4.55;2.92;;;10.00;72.90;;;;;;5012867;28;20033;-68
2022/10/10 05:25:26;;;;;;;5.97;3.30;;;9.90;73.00;;;;;;5012835;28;20034;-68
2022/10/10 05:27:52;;;;;;;5.57;3.50;;;9.90;73.30;;;;;;5009364;28;20084;-67
2022/10/10 05:30:17;;;;;;;6.28;3.80;;;9.80;73.50;;;;;;5010506;28;20061;-68
2022/10/10 05:32:43;;;;;;;5.22;3.35;;;9.80;73.80;;;;;;5006385;28;20405;-68
2022/10/10 05:35:08;;;;;;;4.65;3.00;;;9.80;73.90;;;;;;5002713;28;20118;-67
2022/10/10 05:37:35;;;;;;;3.28;2.70;;;9.80;73.90;;;;;;5002386;28;20026;-68
2022/10/10 05:40:00;;;;;;;3.88;2.92;;;9.80;73.90;;;;;;5008231;28;20101;-68
2022/10/10 05:42:26;;;;;;;5.28;3.22;;;9.80;73.90;;;;;;5022219;28;20105;-68
2022/10/10 05:44:52;;;;;;;5.72;3.33;;;9.80;74.00;;;;;;5011372;28;20044;-68
2022/10/10 05:47:17;;;;;;;4.68;3.20;;;9.70;74.00;;;;;;5011305;28;20054;-68
2022/10/10 05:49:43;;;;;;;3.90;3.20;;;9.70;74.10;;;;;;4995254;28;20026;-68
2022/10/10 05:52:09;;;;;;;6.53;3.67;;;9.70;74.20;;;;;;5010310;28;20038;-68
2022/10/10 05:54:34;;;;;;;4.88;3.42;;;9.70;74.50;;;;;;5019433;28;20511;-68
2022/10/10 05:57:00;;;;;;;4.88;3.10;;;9.70;74.50;;;;;;5010814;28;20026;-68
2022/10/10 05:59:28;;;;;;;5.30;3.67;;;9.70;74.70;;;;;;5009551;28;20041;-68
2022/10/10 06:01:54;;;;;;;6.05;3.50;;;9.70;74.70;;;;;;5009834;28;20013;-68
2022/10/10 06:04:21;;;;;;;4.00;3.30;;;9.80;74.90;;;;;;5008342;28;20042;-69
2022/10/10 06:06:46;;;;;;;4.47;3.33;;;9.80;75.00;;;;;;5010005;28;20034;-67
2022/10/10 06:09:12;;;;;;;5.47;3.67;;;9.80;75.00;;;;;;5010412;28;20030;-68
2022/10/10 06:11:38;;;;;;;4.40;3.40;;;9.80;75.10;;;;;;5005356;28;20105;-68
2022/10/10 06:14:03;;;;;;;6.53;3.20;;;9.90;75.10;;;;;;5008361;28;20404;-69
2022/10/10 06:16:29;;;;;;;4.40;3.22;;;9.90;74.90;;;;;;5010350;28;20068;-68
2022/10/10 06:18:56;;;;;;;6.03;3.47;;;10.00;74.90;;;;;;5011362;28;20026;-67
2022/10/10 06:21:22;;;;;;;5.57;3.50;;;10.00;74.80;;;;;;5011149;28;20026;-69
2022/10/10 06:23:48;;;;;;;6.68;3.47;;;10.00;74.80;;;;;;4999319;28;20029;-68
2022/10/10 06:26:14;;;;;;;7.38;3.97;;;10.10;74.80;;;;;;5011357;28;20029;-68
2022/10/10 06:28:40;;;;;;;5.45;3.63;;;10.10;75.00;;;;;;5011041;28;20029;-68
2022/10/10 06:31:09;;;;;;;4.95;3.10;;;10.10;75.10;;;;;;5010476;28;20053;-68
2022/10/10 06:33:36;;;;;;;5.07;3.67;;;10.20;75.20;;;;;;5010780;28;20396;-68
2022/10/10 06:36:06;;;;;;;4.60;3.17;;;10.20;75.40;;;;;;5011234;28;20030;-68
2022/10/10 06:38:35;;;;;;;5.25;3.50;;;10.30;75.30;;;;;;5010291;28;20026;-68
2022/10/10 06:41:03;;;;;;;6.22;3.83;;;10.40;75.20;;;;;;5011605;28;20547;-68
2022/10/10 06:43:28;;;;;;;6.85;4.20;;;10.40;75.30;;;;;;5010443;28;20084;-68
2022/10/10 06:45:54;;;;;;;5.05;3.70;;;10.40;75.50;;;;;;5011022;28;20136;-68
2022/10/10 06:48:20;;;;;;;7.38;4.03;;;10.50;75.40;;;;;;5006321;28;20041;-68
2022/10/10 06:51:04;;;;;;;5.15;3.60;;;10.60;75.40;;;;;;5002044;28;20025;-68
2022/10/10 06:53:30;;;;;;;5.13;3.42;;;10.70;75.30;;;;;;5006193;28;20108;-66
2022/10/10 06:55:57;;;;;;;6.20;4.35;;;10.80;75.10;;;;;;5009092;28;20021;-68
2022/10/10 06:58:24;;;;;;;5.55;3.97;;;10.80;75.10;;;;;;5007701;28;20093;-67
2022/10/10 07:00:55;;;;;;;7.50;4.82;;;10.90;75.00;;;;;;5000309;28;20029;-68
2022/10/10 07:03:21;;;;;;;5.97;3.85;;;11.00;75.00;;;;;;5007672;28;20044;-67
2022/10/10 07:05:51;;;;;;;4.72;3.85;;;11.00;74.80;;;;;;5007578;28;20045;-67
2022/10/10 07:08:18;;;;;;;5.70;4.05;;;11.10;74.80;;;;;;5006292;28;20034;-68
2022/10/10 07:10:43;;;;;;;4.95;3.70;;;11.10;74.60;;;;;;5003039;28;20037;-67
2022/10/10 07:13:09;;;;;;;6.35;4.25;;;11.20;74.50;;;;;;5006397;28;20018;-67
2022/10/10 07:15:35;;;;;;;7.45;4.28;;;11.20;74.50;;;;;;4996766;28;20389;-68
2022/10/10 07:18:00;;;;;;;6.88;4.43;;;11.30;74.60;;;;;;4998914;28;20057;-68
2022/10/10 07:20:26;;;;;;;7.68;4.72;;;11.30;74.50;;;;;;5007956;28;20028;-68
2022/10/10 07:22:52;;;;;;;10.20;4.45;;;11.40;74.60;;;;;;5007587;28;20056;-68
2022/10/10 07:25:18;;;;;;;7.28;4.65;;;11.50;74.60;;;;;;5008894;28;20033;-68
2022/10/10 07:27:44;;;;;;;6.50;4.20;;;11.50;74.60;;;;;;5003752;28;20025;-67
2022/10/10 07:30:10;;;;;;;6.32;4.45;;;11.50;74.60;;;;;;5003915;28;20092;-67
2022/10/10 07:32:36;;;;;;;9.18;5.15;;;11.60;74.60;;;;;;5006291;28;20026;-68
2022/10/10 07:35:01;;;;;;;6.88;5.18;;;11.70;74.60;;;;;;5008434;28;20554;-67
2022/10/10 07:37:27;;;;;;;10.45;5.22;;;11.70;74.70;;;;;;5006725;28;20030;-68
2022/10/10 07:39:52;;;;;;;8.98;4.70;;;11.70;74.70;;;;;;5004598;28;20530;-69
2022/10/10 07:42:18;;;;;;;7.00;4.05;;;11.80;74.70;;;;;;5004590;28;20575;-69
2022/10/10 07:44:44;;;;;;;6.28;4.20;;;11.90;74.60;;;;;;5005112;28;20133;-68
2022/10/10 07:47:09;;;;;;;8.75;4.60;;;11.90;74.40;;;;;;5007783;28;20029;-69
2022/10/10 07:49:35;;;;;;;6.55;4.78;;;12.00;74.40;;;;;;5006233;28;20373;-69
2022/10/10 07:52:01;;;;;;;6.90;4.70;;;12.00;74.30;;;;;;5006589;28;20097;-67
2022/10/10 07:54:27;;;;;;;10.20;6.03;;;12.10;74.40;;;;;;5003426;28;20030;-68
2022/10/10 07:56:52;;;;;;;6.90;4.95;;;12.10;74.80;;;;;;5003586;28;20528;-68
2022/10/10 07:59:18;;;;;;;8.75;5.70;;;12.20;74.80;;;;;;5006291;28;20105;-69
2022/10/10 08:01:43;;;;;;;5.97;4.25;;;12.20;74.60;;;;;;5006246;28;20022;-69
2022/10/10 08:04:09;;;;;;;12.60;6.63;;;12.30;74.50;;;;;;4997212;28;20022;-68
2022/10/10 08:06:34;;;;;;;10.20;5.75;;;12.40;74.70;;;;;;5006837;28;20481;-68
2022/10/10 08:09:00;;;;;;;8.63;5.32;;;12.40;74.80;;;;;;5005650;28;20038;-69
2022/10/10 08:11:25;;;;;;;6.05;4.30;;;12.40;74.80;;;;;;5002197;28;20022;-68
2022/10/10 08:13:51;;;;;;;9.43;6.13;;;12.60;74.70;;;;;;5008495;28;20022;-68
2022/10/10 08:16:17;;;;;;;7.35;5.65;;;12.70;74.60;;;;;;5006082;28;20485;-68
2022/10/10 08:18:43;;;;;;;7.05;4.82;;;12.70;74.70;;;;;;5007956;28;20033;-68
2022/10/10 08:21:10;;;;;;;7.30;4.25;;;12.80;74.60;;;;;;5013317;28;20010;-69
2022/10/10 08:23:36;;;;;;;10.23;5.22;;;12.90;74.30;;;;;;5003554;28;20026;-68
2022/10/10 08:26:05;;;;;;;7.88;4.88;;;13.00;74.20;;;;;;5003352;28;20057;-68
2022/10/10 08:28:32;;;;;;;5.68;4.18;;;13.10;74.10;;;;;;5000199;28;20485;-69
2022/10/10 08:30:57;;;;;;;5.78;3.38;;;13.10;73.90;;;;;;4998103;28;20564;-68
2022/10/10 08:33:27;;;;;;;4.88;3.90;;;13.10;73.90;;;;;;5004739;28;20057;-68
2022/10/10 08:35:53;;;;;;;6.57;4.95;;;13.20;73.80;;;;;;5008530;28;20044;-69
2022/10/10 08:38:18;;;;;;;7.00;4.43;;;13.20;73.70;;;;;;5000679;28;20053;-66
2022/10/10 08:40:47;;;;;;;9.23;6.13;;;13.30;73.70;;;;;;5012773;28;20029;-67
2022/10/10 08:43:32;;;;;;;5.43;4.30;;;13.30;73.70;;;;;;5010480;28;20024;-67
2022/10/10 08:46:04;;;;;;;5.78;3.97;;;13.20;73.70;;;;;;4996685;28;20034;-67
2022/10/10 08:48:30;;;;;;;;;;;13.30;73.70;;;;;;5007676;28;20112;-67
2022/10/10 08:51:36;;;;;;;7.05;4.38;;;13.30;73.60;;;;;;5003620;28;19980;-66
2022/10/10 08:54:05;;;;;;;7.35;4.18;;;13.40;73.60;;;;;;5007292;28;20161;-67
2022/10/10 08:56:33;;;;;;;7.03;4.22;;;13.40;73.40;;;;;;5009016;28;20053;-67
2022/10/10 08:59:06;;;;;;;6.88;4.93;;;13.60;73.40;;;;;;5010569;28;20415;-68
2022/10/10 09:01:34;;;;;;;8.77;4.95;;;13.60;73.30;;;;;;4999492;28;20025;-68
2022/10/10 09:04:03;;;;;;;8.77;5.80;;;13.70;73.20;;;;;;5005366;28;20028;-67
2022/10/10 09:07:05;;;;;;;6.95;5.10;;;13.70;73.30;;;;;;4999369;28;20124;-67
2022/10/10 09:09:53;;;;;;;6.85;4.63;;;13.70;73.40;;;;;;5010877;28;20689;-68
2022/10/10 09:12:53;;;;;;;6.38;4.28;;;13.90;73.30;;;;;;5002606;28;20042;-68
2022/10/10 09:15:22;;;;;;;6.70;4.47;;;14.00;73.20;;;;;;5003221;28;20045;-68
2022/10/10 09:18:04;;;;;;;5.47;3.80;;;14.10;73.00;;;;;;5010405;28;20104;-68
2022/10/10 09:20:57;;;;;;;4.63;3.38;;;14.20;72.80;;;;;;5008267;28;20109;-68
2022/10/10 09:23:34;;;;;;;7.55;4.53;;;14.30;72.70;;;;;;5004138;28;20026;-68
2022/10/10 09:26:06;;;;;;;7.68;3.97;;;14.40;72.50;;;;;;5005782;28;20109;-68
2022/10/10 09:29:15;;;;;;;8.27;4.72;;;14.50;72.30;;;;;;5001264;28;20036;-67
2022/10/10 09:31:44;;;;;;;8.40;5.40;;;14.60;72.10;;;;;;5003153;28;20073;-69
2022/10/10 09:34:18;;;;;;;10.27;6.72;;;14.60;72.00;;;;;;5009840;28;20042;-69
2022/10/10 09:36:46;;;;;;;7.95;5.50;;;14.60;72.00;;;;;;5008939;28;20033;-68
2022/10/10 09:39:33;;;;;;;9.10;4.78;;;14.60;72.10;;;;;;5006394;28;20026;-66
2022/10/10 09:42:08;;;;;;;10.30;7.03;;;14.80;72.10;;;;;;5010066;28;20746;-68
2022/10/10 09:44:34;;;;;;;16.02;12.20;;;14.90;71.80;;;;;;5005556;28;20026;-67
2022/10/10 09:46:59;;;;;;;11.77;8.68;;;15.00;71.60;;;;;;5009048;28;20108;-68
2022/10/10 09:49:25;;;;;;;9.10;7.47;;;15.00;71.60;;;;;;4995786;28;20034;-67
2022/10/10 09:51:51;;;;;;;9.38;6.80;;;15.10;71.40;;;;;;5006977;28;20033;-67
2022/10/10 09:54:18;;;;;;;8.25;4.95;;;15.30;71.20;;;;;;5007751;28;20037;-67
2022/10/10 09:56:48;;;;;;;7.75;6.45;;;15.40;71.00;;;;;;5011017;28;20113;-67
2022/10/10 09:59:40;;;;;;;6.90;4.40;;;15.40;70.80;;;;;;5000292;28;20041;-68
2022/10/10 10:02:26;;;;;;;7.90;4.70;;;15.50;70.70;;;;;;5009471;28;20030;-67
2022/10/10 10:04:53;;;;;;;8.27;4.80;;;15.60;70.50;;;;;;5004452;28;20535;-68
2022/10/10 10:07:31;;;;;;;8.07;5.28;;;15.70;70.40;;;;;;5009502;28;20459;-67
2022/10/10 10:09:58;;;;;;;11.30;6.32;;;15.80;70.20;;;;;;5002176;28;20101;-67
2022/10/10 10:12:37;;;;;;;6.97;5.78;;;15.80;70.10;;;;;;5006193;28;20030;-67
2022/10/10 10:15:06;;;;;;;6.95;4.97;;;15.80;70.20;;;;;;5004498;28;20052;-67
2022/10/10 10:17:31;;;;;;;8.68;6.00;;;15.80;70.20;;;;;;5007325;28;20496;-67
2022/10/10 10:19:57;;;;;;;5.13;3.85;;;16.00;70.10;;;;;;5011035;28;20140;-67
2022/10/10 10:22:33;;;;;;;9.82;5.28;;;16.10;69.90;;;;;;5003467;28;20026;-67
2022/10/10 10:25:19;;;;;;;5.72;4.57;;;16.20;69.50;;;;;;5001064;28;20208;-68
2022/10/10 10:27:45;;;;;;;6.45;4.82;;;16.20;69.30;;;;;;5009458;28;20790;-68
2022/10/10 10:30:23;;;;;;;7.18;4.32;;;16.30;69.10;;;;;;5009350;28;20077;-68
2022/10/10 10:33:07;;;;;;;5.78;3.67;;;16.30;69.10;;;;;;5010235;28;20091;-68
2022/10/10 10:35:57;;;;;;;8.70;3.88;;;16.40;68.90;;;;;;5007112;28;20076;-68
2022/10/10 10:38:43;;;;;;;9.20;5.47;;;16.40;68.80;;;;;;5009376;28;20034;-67
2022/10/10 10:41:14;;;;;;;6.85;4.68;;;16.40;69.30;;;;;;5008711;28;20037;-68
2022/10/10 10:44:05;;;;;;;6.83;4.03;;;16.50;68.80;;;;;;5000420;28;20101;-69
2022/10/10 10:46:50;;;;;;;6.55;4.35;;;16.50;68.70;;;;;;5000067;28;20857;-69
2022/10/10 10:49:35;;;;;;;6.10;3.97;;;16.60;68.70;;;;;;5003145;28;20120;-68
2022/10/10 10:52:14;;;;;;;4.78;3.30;;;16.60;68.60;;;;;;5007584;28;20606;-69
2022/10/10 10:55:02;;;;;;;6.28;3.60;;;16.70;68.60;;;;;;5004761;28;20045;-67
2022/10/10 10:58:09;;;;;;;5.60;3.10;;;16.80;68.50;;;;;;5003465;28;20030;-68
2022/10/10 11:00:48;;;;;;;8.13;4.07;;;16.90;68.40;;;;;;5008300;28;20037;-68
2022/10/10 11:03:28;;;;;;;4.20;3.58;;;17.00;68.20;;;;;;5010645;28;20121;-69
2022/10/10 11:06:25;;;;;;;7.45;4.22;;;17.20;68.10;;;;;;5006429;28;20018;-69
2022/10/10 11:09:20;;;;;;;9.80;6.55;;;17.20;67.90;;;;;;5006260;28;20034;-68
2022/10/10 11:11:49;;;;;;;10.05;7.10;;;17.30;67.70;;;;;;5009001;28;20025;-69
2022/10/10 11:14:27;;;;;;;9.05;5.32;;;17.40;67.60;;;;;;5007452;28;20030;-69
2022/10/10 11:16:59;;;;;;;6.22;3.67;;;17.50;67.30;;;;;;5004957;28;20109;-69
2022/10/10 11:19:37;;;;;;;5.72;4.00;;;17.60;67.20;;;;;;5009378;28;20025;-68
2022/10/10 11:22:16;;;;;;;6.40;4.72;;;17.60;67.00;;;;;;5007002;28;20029;-70
2022/10/10 11:25:01;;;;;;;6.10;4.57;;;17.60;66.90;;;;;;5004745;28;20025;-69
2022/10/10 11:27:45;;;;;;;7.30;4.22;;;17.70;66.80;;;;;;5005706;28;20373;-69
2022/10/10 11:30:26;;;;;;;6.30;3.50;;;17.80;66.80;;;;;;5003275;28;20029;-69
2022/10/10 11:33:06;;;;;;;5.07;3.83;;;18.00;66.70;;;;;;5004074;28;20036;-69
2022/10/10 11:36:12;;;;;;;8.02;4.22;;;18.10;66.10;;;;;;5005554;28;20026;-70
2022/10/10 11:38:47;;;;;;;6.07;3.50;;;18.10;65.70;;;;;;5002751;28;20041;-69
2022/10/10 11:41:42;;;;;;;5.47;3.08;;;18.10;65.80;;;;;;5007890;28;20022;-69
2022/10/10 11:44:15;;;;;;;5.03;3.55;;;18.20;65.90;;;;;;5005941;28;20042;-70
2022/10/10 11:46:42;;;;;;;5.43;3.40;;;18.20;65.80;;;;;;5008560;28;20095;-67
2022/10/10 11:49:10;;;;;;;5.53;3.17;;;18.30;65.90;;;;;;5007997;28;20496;-69
2022/10/10 11:51:39;;;;;;;5.43;3.20;;;18.30;65.80;;;;;;4998896;28;20021;-68
2022/10/10 11:54:16;;;;;;;5.68;3.17;;;18.40;65.90;;;;;;5004968;28;20022;-67
2022/10/10 11:56:44;;;;;;;6.05;3.28;;;18.40;66.50;;;;;;5004409;28;20042;-68
2022/10/10 11:59:26;;;;;;;6.53;3.53;;;18.60;65.70;;;;;;5007090;28;20022;-68
2022/10/10 12:01:57;;;;;;;6.55;3.20;;;18.60;65.70;;;;;;5003662;28;20026;-68
2022/10/10 12:04:23;;;;;;;6.05;3.65;;;18.60;65.60;;;;;;4995528;28;20026;-66
2022/10/10 12:06:53;;;;;;;7.75;3.70;;;18.70;65.50;;;;;;5002596;28;20048;-67
2022/10/10 12:09:40;;;;;;;6.97;3.60;;;18.80;65.30;;;;;;5005462;28;20033;-68
2022/10/10 12:12:12;;;;;;;9.43;4.07;;;18.90;65.10;;;;;;5013220;28;20038;-68
2022/10/10 12:14:40;;;;;;;;;;;18.90;65.10;;;;;;5014678;28;20038;-67
2022/10/10 12:17:18;;;;;;;7.47;4.18;;;19.00;65.10;;;;;;5009388;28;20231;-68
2022/10/10 12:19:47;;;;;;;5.80;3.03;;;19.00;65.00;;;;;;5010589;28;20046;-69
2022/10/10 12:22:27;;;;;;;6.40;3.67;;;19.20;65.00;;;;;;5012290;28;20496;-69
2022/10/10 12:25:09;;;;;;;5.45;3.40;;;19.40;64.60;;;;;;5013122;28;20087;-69
2022/10/10 12:28:00;;;;;;;5.85;3.00;;;19.50;65.10;;;;;;5012353;28;20117;-68
2022/10/10 12:30:26;;;;;;;7.15;3.80;;;19.50;64.30;;;;;;5007545;28;20092;-68
2022/10/10 12:32:54;;;;;;;5.22;3.38;;;19.40;64.40;;;;;;5009008;28;20515;-70
2022/10/10 12:35:32;;;;;;;5.70;3.30;;;19.30;65.30;;;;;;5008874;28;20092;-69
2022/10/10 12:38:12;;;;;;;8.90;3.38;;;19.30;64.90;;;;;;5011102;28;20471;-68
2022/10/10 12:40:56;;;;;;;5.45;3.05;;;19.20;65.10;;;;;;5010069;28;20029;-70
2022/10/10 12:43:44;;;;;;;5.82;2.70;;;19.10;65.20;;;;;;5005448;28;20032;-68
2022/10/10 12:46:20;;;;;;;6.30;3.35;;;19.00;65.50;;;;;;5020964;28;20046;-68
2022/10/10 12:49:00;;;;;;;5.88;3.50;;;18.70;65.90;;;;;;5009651;28;20036;-69
2022/10/10 12:51:27;;;;;;;5.57;3.03;;;18.60;66.30;;;;;;5010718;28;20034;-69
2022/10/10 12:53:56;;;;;;;5.65;3.10;;;18.50;66.60;;;;;;5010200;28;20037;-69
2022/10/10 12:56:42;;;;;;;4.32;2.60;;;18.40;66.90;;;;;;5009786;28;20425;-67
2022/10/10 12:59:26;;;;;;;5.18;2.95;;;18.40;67.10;;;;;;5009246;28;20458;-69
2022/10/10 13:01:56;;;;;;;4.70;2.85;;;18.40;67.30;;;;;;5009312;28;20527;-69
2022/10/10 13:04:23;;;;;;;5.70;3.60;;;18.30;67.50;;;;;;5009123;28;20033;-69
2022/10/10 13:06:54;;;;;;;7.45;3.85;;;18.20;68.00;;;;;;5011838;28;20109;-68
2022/10/10 13:09:23;;;;;;;5.45;3.20;;;18.20;68.50;;;;;;5006793;28;20034;-69